sensor_id;sensor_type;location;lat;lon;timestamp;P1;durP1;ratioP1;P2;durP2;ratioP2
23232;SDS011;11785;49.500;8.288;2024-03-06T00:02:04;8.40;;;4.65;;
23232;SDS011;11785;49.500;8.288;2024-03-06T00:04:30;10.15;;;5.05;;
23232;SDS011;11785;49.500;8.288;2024-03-06T00:06:56;7.30;;;4.43;;
23232;SDS011;11785;49.500;8.288;2024-03-06T00:09:22;6.22;;;3.95;;
23232;SDS011;11785;49.500;8.288;2024-03-06T00:11:48;9.82;;;4.45;;
23232;SDS011;11785;49.500;8.288;2024-03-06T00:14:16;9.27;;;4.72;;
23232;SDS011;11785;49.500;8.288;2024-03-06T00:16:42;9.57;;;5.40;;
23232;SDS011;11785;49.500;8.288;2024-03-06T00:19:08;8.90;;;5.03;;
23232;SDS011;11785;49.500;8.288;2024-03-06T00:21:33;11.40;;;5.60;;
23232;SDS011;11785;49.500;8.288;2024-03-06T00:24:01;7.13;;;4.97;;
23232;SDS011;11785;49.500;8.288;2024-03-06T00:26:27;8.90;;;5.40;;
23232;SDS011;11785;49.500;8.288;2024-03-06T00:28:52;11.15;;;5.55;;
23232;SDS011;11785;49.500;8.288;2024-03-06T00:31:18;9.98;;;5.47;;
23232;SDS011;11785;49.500;8.288;2024-03-06T00:33:43;10.10;;;5.30;;
23232;SDS011;11785;49.500;8.288;2024-03-06T00:36:09;9.15;;;5.55;;
23232;SDS011;11785;49.500;8.288;2024-03-06T00:38:35;9.80;;;5.40;;
23232;SDS011;11785;49.500;8.288;2024-03-06T00:41:00;11.30;;;5.95;;
23232;SDS011;11785;49.500;8.288;2024-03-06T00:43:26;12.40;;;5.53;;
23232;SDS011;11785;49.500;8.288;2024-03-06T00:45:51;11.23;;;5.60;;
23232;SDS011;11785;49.500;8.288;2024-03-06T00:48:17;10.85;;;5.95;;
23232;SDS011;11785;49.500;8.288;2024-03-06T00:50:45;13.43;;;5.50;;
23232;SDS011;11785;49.500;8.288;2024-03-06T00:53:10;9.50;;;6.13;;
23232;SDS011;11785;49.500;8.288;2024-03-06T00:55:36;8.30;;;5.45;;
23232;SDS011;11785;49.500;8.288;2024-03-06T00:58:02;8.23;;;5.55;;
23232;SDS011;11785;49.500;8.288;2024-03-06T01:00:27;8.43;;;5.55;;
23232;SDS011;11785;49.500;8.288;2024-03-06T01:02:54;11.85;;;5.80;;
23232;SDS011;11785;49.500;8.288;2024-03-06T01:05:19;7.00;;;4.97;;
23232;SDS011;11785;49.500;8.288;2024-03-06T01:07:45;9.05;;;4.75;;
23232;SDS011;11785;49.500;8.288;2024-03-06T01:10:11;8.88;;;4.95;;
23232;SDS011;11785;49.500;8.288;2024-03-06T01:12:36;10.13;;;5.55;;
23232;SDS011;11785;49.500;8.288;2024-03-06T01:15:02;9.80;;;5.63;;
23232;SDS011;11785;49.500;8.288;2024-03-06T01:17:28;9.98;;;5.78;;
23232;SDS011;11785;49.500;8.288;2024-03-06T01:19:54;10.35;;;5.95;;
23232;SDS011;11785;49.500;8.288;2024-03-06T01:22:20;8.93;;;6.20;;
23232;SDS011;11785;49.500;8.288;2024-03-06T01:24:45;8.55;;;6.20;;
23232;SDS011;11785;49.500;8.288;2024-03-06T01:27:15;11.70;;;6.03;;
23232;SDS011;11785;49.500;8.288;2024-03-06T01:29:41;9.95;;;6.05;;
23232;SDS011;11785;49.500;8.288;2024-03-06T01:32:07;13.57;;;7.03;;
23232;SDS011;11785;49.500;8.288;2024-03-06T01:34:32;13.20;;;6.78;;
23232;SDS011;11785;49.500;8.288;2024-03-06T01:36:58;11.57;;;6.93;;
23232;SDS011;11785;49.500;8.288;2024-03-06T01:39:24;11.45;;;6.22;;
23232;SDS011;11785;49.500;8.288;2024-03-06T01:41:50;10.57;;;5.97;;
23232;SDS011;11785;49.500;8.288;2024-03-06T01:44:16;9.45;;;5.82;;
23232;SDS011;11785;49.500;8.288;2024-03-06T01:46:43;9.13;;;5.75;;
23232;SDS011;11785;49.500;8.288;2024-03-06T01:49:12;10.55;;;6.43;;
23232;SDS011;11785;49.500;8.288;2024-03-06T01:51:44;14.63;;;6.38;;
23232;SDS011;11785;49.500;8.288;2024-03-06T01:54:13;11.60;;;6.05;;
23232;SDS011;11785;49.500;8.288;2024-03-06T01:56:39;9.18;;;5.85;;
23232;SDS011;11785;49.500;8.288;2024-03-06T01:59:10;9.75;;;6.03;;
23232;SDS011;11785;49.500;8.288;2024-03-06T02:01:45;9.57;;;5.57;;
23232;SDS011;11785;49.500;8.288;2024-03-06T02:04:11;11.98;;;5.53;;
23232;SDS011;11785;49.500;8.288;2024-03-06T02:06:40;8.85;;;5.65;;
23232;SDS011;11785;49.500;8.288;2024-03-06T02:09:07;11.73;;;6.63;;
23232;SDS011;11785;49.500;8.288;2024-03-06T02:11:34;12.00;;;6.28;;
23232;SDS011;11785;49.500;8.288;2024-03-06T02:14:00;9.68;;;5.93;;
23232;SDS011;11785;49.500;8.288;2024-03-06T02:16:25;7.68;;;5.43;;
23232;SDS011;11785;49.500;8.288;2024-03-06T02:18:52;10.65;;;5.65;;
23232;SDS011;11785;49.500;8.288;2024-03-06T02:21:22;9.30;;;5.45;;
23232;SDS011;11785;49.500;8.288;2024-03-06T02:23:48;9.85;;;5.72;;
23232;SDS011;11785;49.500;8.288;2024-03-06T02:26:18;10.80;;;5.97;;
23232;SDS011;11785;49.500;8.288;2024-03-06T02:28:53;9.15;;;5.93;;
23232;SDS011;11785;49.500;8.288;2024-03-06T02:31:20;9.77;;;5.78;;
23232;SDS011;11785;49.500;8.288;2024-03-06T02:33:47;8.50;;;5.72;;
23232;SDS011;11785;49.500;8.288;2024-03-06T02:36:16;12.48;;;6.30;;
23232;SDS011;11785;49.500;8.288;2024-03-06T02:38:42;12.23;;;6.30;;
23232;SDS011;11785;49.500;8.288;2024-03-06T02:41:08;12.45;;;6.75;;
23232;SDS011;11785;49.500;8.288;2024-03-06T02:43:34;12.20;;;6.30;;
23232;SDS011;11785;49.500;8.288;2024-03-06T02:46:00;12.50;;;6.47;;
23232;SDS011;11785;49.500;8.288;2024-03-06T02:48:26;13.27;;;6.15;;
23232;SDS011;11785;49.500;8.288;2024-03-06T02:50:51;12.02;;;6.68;;
23232;SDS011;11785;49.500;8.288;2024-03-06T02:53:17;8.80;;;6.22;;
23232;SDS011;11785;49.500;8.288;2024-03-06T02:55:43;11.18;;;6.95;;
23232;SDS011;11785;49.500;8.288;2024-03-06T02:58:08;11.35;;;6.60;;
23232;SDS011;11785;49.500;8.288;2024-03-06T03:00:34;14.52;;;6.95;;
23232;SDS011;11785;49.500;8.288;2024-03-06T03:02:59;11.63;;;6.32;;
23232;SDS011;11785;49.500;8.288;2024-03-06T03:05:25;10.27;;;6.55;;
23232;SDS011;11785;49.500;8.288;2024-03-06T03:07:50;11.35;;;6.47;;
23232;SDS011;11785;49.500;8.288;2024-03-06T03:10:16;8.98;;;5.93;;
23232;SDS011;11785;49.500;8.288;2024-03-06T03:12:42;12.02;;;6.65;;
23232;SDS011;11785;49.500;8.288;2024-03-06T03:15:08;12.32;;;6.25;;
23232;SDS011;11785;49.500;8.288;2024-03-06T03:17:34;14.55;;;6.40;;
23232;SDS011;11785;49.500;8.288;2024-03-06T03:20:00;12.48;;;6.85;;
23232;SDS011;11785;49.500;8.288;2024-03-06T03:22:35;14.82;;;7.05;;
23232;SDS011;11785;49.500;8.288;2024-03-06T03:25:13;14.50;;;8.55;;
23232;SDS011;11785;49.500;8.288;2024-03-06T03:27:39;13.68;;;7.20;;
23232;SDS011;11785;49.500;8.288;2024-03-06T03:30:09;11.70;;;6.90;;
23232;SDS011;11785;49.500;8.288;2024-03-06T03:32:35;11.07;;;6.32;;
23232;SDS011;11785;49.500;8.288;2024-03-06T03:35:01;14.32;;;7.07;;
23232;SDS011;11785;49.500;8.288;2024-03-06T03:37:27;11.95;;;6.97;;
23232;SDS011;11785;49.500;8.288;2024-03-06T03:39:53;11.35;;;6.60;;
23232;SDS011;11785;49.500;8.288;2024-03-06T03:42:19;10.65;;;6.60;;
23232;SDS011;11785;49.500;8.288;2024-03-06T03:44:45;11.48;;;6.40;;
23232;SDS011;11785;49.500;8.288;2024-03-06T03:47:10;9.90;;;6.10;;
23232;SDS011;11785;49.500;8.288;2024-03-06T03:49:37;8.27;;;5.70;;
23232;SDS011;11785;49.500;8.288;2024-03-06T03:52:03;9.15;;;6.32;;
23232;SDS011;11785;49.500;8.288;2024-03-06T03:54:28;11.07;;;7.05;;
23232;SDS011;11785;49.500;8.288;2024-03-06T03:56:54;11.70;;;6.45;;
23232;SDS011;11785;49.500;8.288;2024-03-06T03:59:19;9.82;;;6.47;;
23232;SDS011;11785;49.500;8.288;2024-03-06T04:01:45;13.35;;;6.32;;
23232;SDS011;11785;49.500;8.288;2024-03-06T04:04:15;11.00;;;6.60;;
23232;SDS011;11785;49.500;8.288;2024-03-06T04:06:41;8.98;;;5.97;;
23232;SDS011;11785;49.500;8.288;2024-03-06T04:09:06;11.57;;;6.45;;
23232;SDS011;11785;49.500;8.288;2024-03-06T04:11:34;11.00;;;6.78;;
23232;SDS011;11785;49.500;8.288;2024-03-06T04:14:03;11.05;;;6.28;;
23232;SDS011;11785;49.500;8.288;2024-03-06T04:16:31;12.07;;;7.18;;
23232;SDS011;11785;49.500;8.288;2024-03-06T04:18:57;11.30;;;6.82;;
23232;SDS011;11785;49.500;8.288;2024-03-06T04:21:22;11.48;;;6.68;;
23232;SDS011;11785;49.500;8.288;2024-03-06T04:23:48;11.70;;;7.07;;
23232;SDS011;11785;49.500;8.288;2024-03-06T04:26:13;14.52;;;6.90;;
23232;SDS011;11785;49.500;8.288;2024-03-06T04:28:39;10.07;;;6.10;;
23232;SDS011;11785;49.500;8.288;2024-03-06T04:31:05;11.55;;;7.63;;
23232;SDS011;11785;49.500;8.288;2024-03-06T04:33:30;12.85;;;7.10;;
23232;SDS011;11785;49.500;8.288;2024-03-06T04:35:56;11.82;;;7.53;;
23232;SDS011;11785;49.500;8.288;2024-03-06T04:38:21;12.95;;;7.45;;
23232;SDS011;11785;49.500;8.288;2024-03-06T04:40:47;12.90;;;7.35;;
23232;SDS011;11785;49.500;8.288;2024-03-06T04:43:12;12.57;;;7.95;;
23232;SDS011;11785;49.500;8.288;2024-03-06T04:45:38;10.38;;;6.70;;
23232;SDS011;11785;49.500;8.288;2024-03-06T04:48:04;14.25;;;7.60;;
23232;SDS011;11785;49.500;8.288;2024-03-06T04:50:30;13.05;;;7.10;;
23232;SDS011;11785;49.500;8.288;2024-03-06T04:52:56;11.32;;;7.55;;
23232;SDS011;11785;49.500;8.288;2024-03-06T04:55:21;10.75;;;7.22;;
23232;SDS011;11785;49.500;8.288;2024-03-06T04:57:47;11.13;;;6.95;;
23232;SDS011;11785;49.500;8.288;2024-03-06T05:00:14;15.23;;;9.30;;
23232;SDS011;11785;49.500;8.288;2024-03-06T05:02:40;14.43;;;8.45;;
23232;SDS011;11785;49.500;8.288;2024-03-06T05:05:07;19.25;;;9.35;;
23232;SDS011;11785;49.500;8.288;2024-03-06T05:07:33;16.25;;;9.60;;
23232;SDS011;11785;49.500;8.288;2024-03-06T05:09:59;15.25;;;9.35;;
23232;SDS011;11785;49.500;8.288;2024-03-06T05:12:26;15.50;;;9.35;;
23232;SDS011;11785;49.500;8.288;2024-03-06T05:14:52;16.50;;;9.27;;
23232;SDS011;11785;49.500;8.288;2024-03-06T05:17:19;17.95;;;9.15;;
23232;SDS011;11785;49.500;8.288;2024-03-06T05:19:45;16.13;;;9.05;;
23232;SDS011;11785;49.500;8.288;2024-03-06T05:22:12;18.20;;;8.75;;
23232;SDS011;11785;49.500;8.288;2024-03-06T05:24:38;13.73;;;8.63;;
23232;SDS011;11785;49.500;8.288;2024-03-06T05:27:04;15.88;;;8.07;;
23232;SDS011;11785;49.500;8.288;2024-03-06T05:29:29;15.05;;;8.50;;
23232;SDS011;11785;49.500;8.288;2024-03-06T05:31:55;16.30;;;9.15;;
23232;SDS011;11785;49.500;8.288;2024-03-06T05:34:21;15.00;;;8.20;;
23232;SDS011;11785;49.500;8.288;2024-03-06T05:36:47;13.15;;;8.55;;
23232;SDS011;11785;49.500;8.288;2024-03-06T05:39:13;14.80;;;7.97;;
23232;SDS011;11785;49.500;8.288;2024-03-06T05:41:39;10.77;;;7.50;;
23232;SDS011;11785;49.500;8.288;2024-03-06T05:44:05;13.50;;;8.00;;
23232;SDS011;11785;49.500;8.288;2024-03-06T05:46:30;15.02;;;8.10;;
23232;SDS011;11785;49.500;8.288;2024-03-06T05:48:56;15.40;;;8.07;;
23232;SDS011;11785;49.500;8.288;2024-03-06T05:51:22;13.63;;;7.63;;
23232;SDS011;11785;49.500;8.288;2024-03-06T05:53:47;12.93;;;7.43;;
23232;SDS011;11785;49.500;8.288;2024-03-06T05:56:13;12.63;;;7.25;;
23232;SDS011;11785;49.500;8.288;2024-03-06T05:58:38;11.20;;;7.15;;
23232;SDS011;11785;49.500;8.288;2024-03-06T06:01:04;13.52;;;7.15;;
23232;SDS011;11785;49.500;8.288;2024-03-06T06:03:30;13.05;;;6.32;;
23232;SDS011;11785;49.500;8.288;2024-03-06T06:05:56;12.02;;;7.05;;
23232;SDS011;11785;49.500;8.288;2024-03-06T06:08:22;12.18;;;6.43;;
23232;SDS011;11785;49.500;8.288;2024-03-06T06:10:47;11.25;;;6.82;;
23232;SDS011;11785;49.500;8.288;2024-03-06T06:13:13;9.63;;;6.05;;
23232;SDS011;11785;49.500;8.288;2024-03-06T06:15:39;9.48;;;5.88;;
23232;SDS011;11785;49.500;8.288;2024-03-06T06:18:05;9.38;;;5.88;;
23232;SDS011;11785;49.500;8.288;2024-03-06T06:20:30;9.10;;;5.95;;
23232;SDS011;11785;49.500;8.288;2024-03-06T06:22:56;11.02;;;6.85;;
23232;SDS011;11785;49.500;8.288;2024-03-06T06:25:22;10.32;;;6.35;;
23232;SDS011;11785;49.500;8.288;2024-03-06T06:27:48;13.75;;;6.28;;
23232;SDS011;11785;49.500;8.288;2024-03-06T06:30:14;9.98;;;6.65;;
23232;SDS011;11785;49.500;8.288;2024-03-06T06:32:41;12.05;;;6.25;;
23232;SDS011;11785;49.500;8.288;2024-03-06T06:35:08;13.73;;;6.18;;
23232;SDS011;11785;49.500;8.288;2024-03-06T06:37:34;12.40;;;6.30;;
23232;SDS011;11785;49.500;8.288;2024-03-06T06:40:00;9.20;;;5.88;;
23232;SDS011;11785;49.500;8.288;2024-03-06T06:42:32;11.93;;;5.93;;
23232;SDS011;11785;49.500;8.288;2024-03-06T06:44:58;7.90;;;5.85;;
23232;SDS011;11785;49.500;8.288;2024-03-06T06:47:24;10.85;;;5.65;;
23232;SDS011;11785;49.500;8.288;2024-03-06T06:49:50;12.15;;;5.82;;
23232;SDS011;11785;49.500;8.288;2024-03-06T06:52:16;9.63;;;6.00;;
23232;SDS011;11785;49.500;8.288;2024-03-06T06:54:42;11.10;;;6.32;;
23232;SDS011;11785;49.500;8.288;2024-03-06T06:57:07;14.50;;;6.80;;
23232;SDS011;11785;49.500;8.288;2024-03-06T06:59:33;12.82;;;6.53;;
23232;SDS011;11785;49.500;8.288;2024-03-06T07:01:59;12.27;;;7.07;;
23232;SDS011;11785;49.500;8.288;2024-03-06T07:04:25;10.75;;;6.60;;
23232;SDS011;11785;49.500;8.288;2024-03-06T07:06:51;15.48;;;6.82;;
23232;SDS011;11785;49.500;8.288;2024-03-06T07:09:16;16.52;;;6.95;;
23232;SDS011;11785;49.500;8.288;2024-03-06T07:11:43;8.38;;;5.80;;
23232;SDS011;11785;49.500;8.288;2024-03-06T07:14:09;14.15;;;6.38;;
23232;SDS011;11785;49.500;8.288;2024-03-06T07:16:46;9.70;;;5.97;;
23232;SDS011;11785;49.500;8.288;2024-03-06T07:19:12;11.93;;;6.32;;
23232;SDS011;11785;49.500;8.288;2024-03-06T07:21:37;12.05;;;6.35;;
23232;SDS011;11785;49.500;8.288;2024-03-06T07:24:03;11.15;;;6.40;;
23232;SDS011;11785;49.500;8.288;2024-03-06T07:26:31;9.60;;;5.85;;
23232;SDS011;11785;49.500;8.288;2024-03-06T07:28:57;9.27;;;5.97;;
23232;SDS011;11785;49.500;8.288;2024-03-06T07:31:23;10.63;;;6.38;;
23232;SDS011;11785;49.500;8.288;2024-03-06T07:33:49;13.00;;;6.45;;
23232;SDS011;11785;49.500;8.288;2024-03-06T07:36:15;11.60;;;6.55;;
23232;SDS011;11785;49.500;8.288;2024-03-06T07:38:41;13.88;;;6.50;;
23232;SDS011;11785;49.500;8.288;2024-03-06T07:41:07;10.18;;;5.65;;
23232;SDS011;11785;49.500;8.288;2024-03-06T07:43:33;9.77;;;5.95;;
23232;SDS011;11785;49.500;8.288;2024-03-06T07:45:59;10.10;;;6.43;;
23232;SDS011;11785;49.500;8.288;2024-03-06T07:48:24;11.52;;;6.15;;
23232;SDS011;11785;49.500;8.288;2024-03-06T07:50:50;9.88;;;6.20;;
23232;SDS011;11785;49.500;8.288;2024-03-06T07:53:16;10.73;;;6.40;;
23232;SDS011;11785;49.500;8.288;2024-03-06T07:55:42;12.68;;;7.07;;
23232;SDS011;11785;49.500;8.288;2024-03-06T07:58:07;9.35;;;6.55;;
23232;SDS011;11785;49.500;8.288;2024-03-06T08:00:34;11.48;;;6.50;;
23232;SDS011;11785;49.500;8.288;2024-03-06T08:03:00;13.25;;;6.22;;
23232;SDS011;11785;49.500;8.288;2024-03-06T08:05:26;8.50;;;5.80;;
23232;SDS011;11785;49.500;8.288;2024-03-06T08:07:53;7.88;;;5.70;;
23232;SDS011;11785;49.500;8.288;2024-03-06T08:10:18;11.65;;;5.53;;
23232;SDS011;11785;49.500;8.288;2024-03-06T08:12:44;12.05;;;5.35;;
23232;SDS011;11785;49.500;8.288;2024-03-06T08:15:13;9.52;;;5.53;;
23232;SDS011;11785;49.500;8.288;2024-03-06T08:17:40;9.38;;;5.57;;
23232;SDS011;11785;49.500;8.288;2024-03-06T08:20:07;8.75;;;5.75;;
23232;SDS011;11785;49.500;8.288;2024-03-06T08:22:37;11.85;;;5.85;;
23232;SDS011;11785;49.500;8.288;2024-03-06T08:25:10;9.07;;;5.30;;
23232;SDS011;11785;49.500;8.288;2024-03-06T08:27:39;8.05;;;5.38;;
23232;SDS011;11785;49.500;8.288;2024-03-06T08:30:06;7.28;;;5.28;;
23232;SDS011;11785;49.500;8.288;2024-03-06T08:32:33;11.90;;;5.55;;
23232;SDS011;11785;49.500;8.288;2024-03-06T08:35:00;9.70;;;5.70;;
23232;SDS011;11785;49.500;8.288;2024-03-06T08:37:33;11.60;;;6.15;;
23232;SDS011;11785;49.500;8.288;2024-03-06T08:39:59;8.13;;;5.20;;
23232;SDS011;11785;49.500;8.288;2024-03-06T08:42:25;10.25;;;5.55;;
23232;SDS011;11785;49.500;8.288;2024-03-06T08:44:52;7.10;;;4.47;;
23232;SDS011;11785;49.500;8.288;2024-03-06T08:47:17;6.63;;;4.30;;
23232;SDS011;11785;49.500;8.288;2024-03-06T08:49:43;9.00;;;4.50;;
23232;SDS011;11785;49.500;8.288;2024-03-06T08:52:08;9.57;;;5.40;;
23232;SDS011;11785;49.500;8.288;2024-03-06T08:54:35;8.25;;;5.38;;
23232;SDS011;11785;49.500;8.288;2024-03-06T08:57:01;11.07;;;5.57;;
23232;SDS011;11785;49.500;8.288;2024-03-06T08:59:27;9.98;;;4.88;;
23232;SDS011;11785;49.500;8.288;2024-03-06T09:01:54;10.45;;;5.40;;
23232;SDS011;11785;49.500;8.288;2024-03-06T09:04:20;12.25;;;5.65;;
23232;SDS011;11785;49.500;8.288;2024-03-06T09:06:46;9.70;;;5.47;;
23232;SDS011;11785;49.500;8.288;2024-03-06T09:09:12;9.52;;;5.35;;
23232;SDS011;11785;49.500;8.288;2024-03-06T09:11:40;9.55;;;5.35;;
23232;SDS011;11785;49.500;8.288;2024-03-06T09:14:06;8.93;;;4.85;;
23232;SDS011;11785;49.500;8.288;2024-03-06T09:16:34;8.88;;;4.55;;
23232;SDS011;11785;49.500;8.288;2024-03-06T09:18:59;10.70;;;4.57;;
23232;SDS011;11785;49.500;8.288;2024-03-06T09:21:25;7.60;;;4.40;;
23232;SDS011;11785;49.500;8.288;2024-03-06T09:23:51;7.70;;;4.40;;
23232;SDS011;11785;49.500;8.288;2024-03-06T09:26:16;11.40;;;4.78;;
23232;SDS011;11785;49.500;8.288;2024-03-06T09:28:42;9.38;;;4.70;;
23232;SDS011;11785;49.500;8.288;2024-03-06T09:31:08;11.25;;;4.28;;
23232;SDS011;11785;49.500;8.288;2024-03-06T09:33:34;7.68;;;4.43;;
23232;SDS011;11785;49.500;8.288;2024-03-06T09:35:59;10.60;;;4.20;;
23232;SDS011;11785;49.500;8.288;2024-03-06T09:38:25;6.70;;;4.60;;
23232;SDS011;11785;49.500;8.288;2024-03-06T09:40:50;8.88;;;4.40;;
23232;SDS011;11785;49.500;8.288;2024-03-06T09:43:17;6.88;;;3.95;;
23232;SDS011;11785;49.500;8.288;2024-03-06T09:45:44;7.82;;;3.42;;
23232;SDS011;11785;49.500;8.288;2024-03-06T09:48:13;5.95;;;4.10;;
23232;SDS011;11785;49.500;8.288;2024-03-06T09:50:39;8.07;;;4.07;;
23232;SDS011;11785;49.500;8.288;2024-03-06T09:53:10;10.57;;;4.47;;
23232;SDS011;11785;49.500;8.288;2024-03-06T09:55:40;8.85;;;3.95;;
23232;SDS011;11785;49.500;8.288;2024-03-06T09:58:06;7.80;;;4.57;;
23232;SDS011;11785;49.500;8.288;2024-03-06T10:00:33;8.43;;;4.10;;
23232;SDS011;11785;49.500;8.288;2024-03-06T10:03:00;5.10;;;3.97;;
23232;SDS011;11785;49.500;8.288;2024-03-06T10:05:30;7.18;;;3.88;;
23232;SDS011;11785;49.500;8.288;2024-03-06T10:07:58;5.88;;;3.85;;
23232;SDS011;11785;49.500;8.288;2024-03-06T10:10:25;6.63;;;3.95;;
23232;SDS011;11785;49.500;8.288;2024-03-06T10:12:51;5.15;;;3.72;;
23232;SDS011;11785;49.500;8.288;2024-03-06T10:15:17;8.27;;;3.58;;
23232;SDS011;11785;49.500;8.288;2024-03-06T10:17:43;6.10;;;3.10;;
23232;SDS011;11785;49.500;8.288;2024-03-06T10:20:19;3.50;;;2.80;;
23232;SDS011;11785;49.500;8.288;2024-03-06T10:22:49;3.80;;;2.88;;
23232;SDS011;11785;49.500;8.288;2024-03-06T10:25:19;7.63;;;3.72;;
23232;SDS011;11785;49.500;8.288;2024-03-06T10:27:46;5.43;;;3.55;;
23232;SDS011;11785;49.500;8.288;2024-03-06T10:30:26;5.68;;;3.97;;
23232;SDS011;11785;49.500;8.288;2024-03-06T10:32:53;6.18;;;3.40;;
23232;SDS011;11785;49.500;8.288;2024-03-06T10:35:18;6.18;;;4.28;;
23232;SDS011;11785;49.500;8.288;2024-03-06T10:37:45;5.85;;;3.80;;
23232;SDS011;11785;49.500;8.288;2024-03-06T10:40:12;12.25;;;7.43;;
23232;SDS011;11785;49.500;8.288;2024-03-06T10:42:40;13.98;;;7.88;;
23232;SDS011;11785;49.500;8.288;2024-03-06T10:45:07;11.50;;;7.22;;
23232;SDS011;11785;49.500;8.288;2024-03-06T10:47:38;12.50;;;7.90;;
23232;SDS011;11785;49.500;8.288;2024-03-06T10:50:05;11.50;;;7.82;;
23232;SDS011;11785;49.500;8.288;2024-03-06T10:52:35;17.08;;;9.00;;
23232;SDS011;11785;49.500;8.288;2024-03-06T10:55:03;16.20;;;9.32;;
23232;SDS011;11785;49.500;8.288;2024-03-06T10:57:29;10.75;;;7.18;;
23232;SDS011;11785;49.500;8.288;2024-03-06T10:59:56;11.32;;;7.28;;
23232;SDS011;11785;49.500;8.288;2024-03-06T11:02:24;13.88;;;9.18;;
23232;SDS011;11785;49.500;8.288;2024-03-06T11:04:51;15.98;;;9.88;;
23232;SDS011;11785;49.500;8.288;2024-03-06T11:07:18;17.58;;;9.43;;
23232;SDS011;11785;49.500;8.288;2024-03-06T11:09:44;14.75;;;9.00;;
23232;SDS011;11785;49.500;8.288;2024-03-06T11:12:09;12.70;;;9.05;;
23232;SDS011;11785;49.500;8.288;2024-03-06T11:14:38;14.75;;;9.00;;
23232;SDS011;11785;49.500;8.288;2024-03-06T11:17:10;18.42;;;9.70;;
23232;SDS011;11785;49.500;8.288;2024-03-06T11:28:18;15.15;;;9.60;;
23232;SDS011;11785;49.500;8.288;2024-03-06T11:30:45;16.85;;;10.73;;
23232;SDS011;11785;49.500;8.288;2024-03-06T11:33:14;15.00;;;9.23;;
23232;SDS011;11785;49.500;8.288;2024-03-06T11:35:41;15.82;;;9.20;;
23232;SDS011;11785;49.500;8.288;2024-03-06T11:38:16;15.80;;;10.15;;
23232;SDS011;11785;49.500;8.288;2024-03-06T11:40:44;17.00;;;10.50;;
23232;SDS011;11785;49.500;8.288;2024-03-06T11:43:26;16.27;;;10.88;;
23232;SDS011;11785;49.500;8.288;2024-03-06T11:45:52;20.42;;;11.70;;
23232;SDS011;11785;49.500;8.288;2024-03-06T11:48:18;19.67;;;11.18;;
23232;SDS011;11785;49.500;8.288;2024-03-06T11:50:47;17.00;;;10.77;;
23232;SDS011;11785;49.500;8.288;2024-03-06T11:53:13;16.90;;;10.55;;
23232;SDS011;11785;49.500;8.288;2024-03-06T11:55:39;16.52;;;10.65;;
23232;SDS011;11785;49.500;8.288;2024-03-06T11:58:05;18.33;;;10.65;;
23232;SDS011;11785;49.500;8.288;2024-03-06T12:00:32;19.13;;;10.75;;
23232;SDS011;11785;49.500;8.288;2024-03-06T12:02:58;17.02;;;10.43;;
23232;SDS011;11785;49.500;8.288;2024-03-06T12:05:24;16.90;;;11.25;;
23232;SDS011;11785;49.500;8.288;2024-03-06T12:07:50;17.45;;;11.00;;
23232;SDS011;11785;49.500;8.288;2024-03-06T12:10:16;19.60;;;11.73;;
23232;SDS011;11785;49.500;8.288;2024-03-06T12:12:43;15.45;;;10.35;;
23232;SDS011;11785;49.500;8.288;2024-03-06T12:15:10;14.25;;;10.48;;
23232;SDS011;11785;49.500;8.288;2024-03-06T12:17:46;14.35;;;10.63;;
23232;SDS011;11785;49.500;8.288;2024-03-06T12:20:14;15.93;;;10.95;;
23232;SDS011;11785;49.500;8.288;2024-03-06T12:22:48;14.93;;;9.73;;
23232;SDS011;11785;49.500;8.288;2024-03-06T12:25:19;16.75;;;11.00;;
23232;SDS011;11785;49.500;8.288;2024-03-06T12:27:45;15.38;;;10.18;;
23232;SDS011;11785;49.500;8.288;2024-03-06T12:30:11;14.18;;;9.75;;
23232;SDS011;11785;49.500;8.288;2024-03-06T12:32:37;15.20;;;10.68;;
23232;SDS011;11785;49.500;8.288;2024-03-06T12:35:04;15.25;;;10.52;;
23232;SDS011;11785;49.500;8.288;2024-03-06T12:37:30;16.27;;;11.07;;
23232;SDS011;11785;49.500;8.288;2024-03-06T12:39:56;15.77;;;10.65;;
23232;SDS011;11785;49.500;8.288;2024-03-06T12:42:22;15.10;;;10.20;;
23232;SDS011;11785;49.500;8.288;2024-03-06T12:44:49;18.80;;;11.07;;
23232;SDS011;11785;49.500;8.288;2024-03-06T12:47:14;13.88;;;9.75;;
23232;SDS011;11785;49.500;8.288;2024-03-06T12:49:40;14.77;;;9.55;;
23232;SDS011;11785;49.500;8.288;2024-03-06T12:52:06;13.18;;;9.63;;
23232;SDS011;11785;49.500;8.288;2024-03-06T12:54:31;14.60;;;9.30;;
23232;SDS011;11785;49.500;8.288;2024-03-06T12:56:57;15.05;;;9.25;;
23232;SDS011;11785;49.500;8.288;2024-03-06T12:59:23;13.98;;;9.38;;
23232;SDS011;11785;49.500;8.288;2024-03-06T13:01:48;13.43;;;9.05;;
23232;SDS011;11785;49.500;8.288;2024-03-06T13:04:14;15.77;;;10.13;;
23232;SDS011;11785;49.500;8.288;2024-03-06T13:06:39;16.17;;;9.80;;
23232;SDS011;11785;49.500;8.288;2024-03-06T13:09:05;17.33;;;10.05;;
23232;SDS011;11785;49.500;8.288;2024-03-06T13:11:31;15.88;;;10.85;;
23232;SDS011;11785;49.500;8.288;2024-03-06T13:13:57;16.58;;;10.32;;
23232;SDS011;11785;49.500;8.288;2024-03-06T13:16:23;13.30;;;9.65;;
23232;SDS011;11785;49.500;8.288;2024-03-06T13:18:48;14.18;;;9.30;;
23232;SDS011;11785;49.500;8.288;2024-03-06T13:21:22;12.57;;;8.88;;
23232;SDS011;11785;49.500;8.288;2024-03-06T13:23:48;16.00;;;9.60;;
23232;SDS011;11785;49.500;8.288;2024-03-06T13:26:14;14.43;;;9.13;;
23232;SDS011;11785;49.500;8.288;2024-03-06T13:28:40;17.20;;;9.20;;
23232;SDS011;11785;49.500;8.288;2024-03-06T13:31:05;14.18;;;9.00;;
23232;SDS011;11785;49.500;8.288;2024-03-06T13:33:34;15.90;;;8.77;;
23232;SDS011;11785;49.500;8.288;2024-03-06T13:35:59;15.35;;;8.80;;
23232;SDS011;11785;49.500;8.288;2024-03-06T13:38:25;12.23;;;8.52;;
23232;SDS011;11785;49.500;8.288;2024-03-06T13:40:50;12.63;;;8.43;;
23232;SDS011;11785;49.500;8.288;2024-03-06T13:43:16;13.07;;;9.82;;
23232;SDS011;11785;49.500;8.288;2024-03-06T13:45:48;13.98;;;9.90;;
23232;SDS011;11785;49.500;8.288;2024-03-06T13:48:15;13.02;;;9.35;;
23232;SDS011;11785;49.500;8.288;2024-03-06T13:50:42;14.55;;;9.57;;
23232;SDS011;11785;49.500;8.288;2024-03-06T13:53:09;13.82;;;9.90;;
23232;SDS011;11785;49.500;8.288;2024-03-06T13:55:35;18.48;;;11.82;;
23232;SDS011;11785;49.500;8.288;2024-03-06T13:58:00;16.05;;;10.48;;
23232;SDS011;11785;49.500;8.288;2024-03-06T14:00:26;17.13;;;11.25;;
23232;SDS011;11785;49.500;8.288;2024-03-06T14:02:52;15.63;;;11.00;;
23232;SDS011;11785;49.500;8.288;2024-03-06T14:05:18;16.25;;;11.40;;
23232;SDS011;11785;49.500;8.288;2024-03-06T14:07:49;20.92;;;12.30;;
23232;SDS011;11785;49.500;8.288;2024-03-06T14:10:18;18.90;;;12.23;;
23232;SDS011;11785;49.500;8.288;2024-03-06T14:12:45;18.73;;;11.57;;
23232;SDS011;11785;49.500;8.288;2024-03-06T14:15:10;19.17;;;11.50;;
23232;SDS011;11785;49.500;8.288;2024-03-06T14:17:41;21.08;;;12.68;;
23232;SDS011;11785;49.500;8.288;2024-03-06T14:20:07;20.13;;;13.82;;
23232;SDS011;11785;49.500;8.288;2024-03-06T14:22:33;19.83;;;13.10;;
23232;SDS011;11785;49.500;8.288;2024-03-06T14:24:58;19.02;;;13.40;;
23232;SDS011;11785;49.500;8.288;2024-03-06T14:27:24;20.65;;;12.80;;
23232;SDS011;11785;49.500;8.288;2024-03-06T14:29:50;19.20;;;12.60;;
23232;SDS011;11785;49.500;8.288;2024-03-06T14:32:16;19.48;;;12.77;;
23232;SDS011;11785;49.500;8.288;2024-03-06T14:34:43;20.75;;;13.10;;
23232;SDS011;11785;49.500;8.288;2024-03-06T14:37:09;21.13;;;13.18;;
23232;SDS011;11785;49.500;8.288;2024-03-06T14:39:35;21.10;;;12.27;;
23232;SDS011;11785;49.500;8.288;2024-03-06T14:42:01;23.20;;;13.88;;